Latest Weather Observations for Sheoaks

IDV60901

Issued at 1:21 pm EST Tuesday 29 September 2020 (issued every 10 minutes, with the page automatically refreshed every 10 minutes)

About weather observations | Map of Melbourne area stations | Latest observations for Melbourne area | Other Formats
Station Details ID: 087168 Name: SHEOAKS Lat: -37.91 Lon: 144.13 Height: 236.7 m
Data from the previous 72 hours. | See also: Recent months at Sheoaks
Date/Time
EST
Temp
°C
App
Temp
°C
Dew
Point
°C
Rel
Hum
%
Delta-T
°C
Wind Press
QNH
hPa
Press
MSL
hPa
Rain since
9am
mm
Dir  Spd
km/h
Gust
km/h
Spd
kts
Gust
kts
29/01:00pm 18.2 14.2 4.7 41 6.5 N 15 22 8 12 1019.5 1019.7 0.0
29/12:30pm 17.6 14.8 5.2 44 6.0 N 9 15 5 8 1020.1 1020.3 0.0
29/12:00pm 17.4 14.5 6.3 48 5.5 NNE 11 17 6 9 1020.7 1020.8 0.0
29/11:30am 16.0 13.7 5.9 51 4.9 N 7 15 4 8 1021.2 1021.3 0.0
29/11:00am 15.7 13.1 6.2 53 4.6 N 9 17 5 9 1021.8 1022.0 0.0
29/10:30am 15.3 12.7 6.1 54 4.5 N 9 15 5 8 1022.1 1022.3 0.0
29/10:00am 14.7 11.4 6.5 58 4.0 N 13 20 7 11 1022.3 1022.5 0.0
29/09:30am 13.6 13.0 8.9 73 2.4 SSW 2 6 1 3 1022.5 1022.7 0.0
29/09:00am 13.2 12.1 9.8 80 1.8 ENE 6 7 3 4 1022.8 1023.0 0.0
29/08:30am 11.2 11.0 10.4 95 0.4 NNE 2 6 1 3 1023.2 1023.4 0.0
29/08:00am 7.9 6.2 7.5 97 0.2 N 6 7 3 4 1023.9 1024.1 0.0
29/07:30am 5.3 2.8 5.0 98 0.1 NNW 7 9 4 5 1024.3 1024.5 0.0
29/07:00am 3.4 0.6 3.0 97 0.2 N 7 11 4 6 1024.0 1024.2 0.0
29/06:30am 2.4 -0.6 2.0 97 0.2 N 7 9 4 5 1023.7 1023.9 0.0
29/06:00am 2.0 -1.4 1.6 97 0.2 N 9 13 5 7 1023.8 1024.0 0.0
29/05:30am 0.4 -3.3 -0.2 96 0.2 NNW 9 11 5 6 1023.8 1024.0 0.0
29/05:00am 0.2 -3.2 -0.4 96 0.2 N 7 9 4 5 1023.1 1023.3 0.0
29/04:30am 0.6 -2.5 0.0 96 0.2 N 6 7 3 4 1023.0 1023.2 0.0
29/04:00am 0.5 -2.8 -0.2 95 0.3 N 7 7 4 4 1023.0 1023.2 0.0
29/03:30am 0.6 -2.7 -0.1 95 0.3 N 7 9 4 5 1023.5 1023.7 0.0
29/03:00am 1.4 -1.8 0.7 95 0.3 N 7 9 4 5 1023.7 1023.9 0.0
29/02:30am 1.9 -2.0 1.2 95 0.3 N 11 11 6 6 1023.9 1024.1 0.0
29/02:00am 1.4 -1.8 0.5 94 0.3 N 7 9 4 5 1024.3 1024.5 0.0
29/01:30am 1.6 -1.0 0.7 94 0.3 N 4 6 2 3 1024.6 1024.8 0.0
29/01:00am 2.0 -1.0 1.0 93 0.4 N 6 7 3 4 1025.3 1025.5 0.0
29/12:30am 2.7 -0.2 1.7 93 0.4 NNE 6 7 3 4 1025.6 1025.8 0.0
29/12:00am 2.9 -0.1 1.9 93 0.4 N 7 7 4 4 1025.9 1026.1 0.0
 
Date/Time
EST
Temp
°C
App
Temp
°C
Dew
Point
°C
Rel
Hum
%
Delta-T
°C
Wind Press
QNH
hPa
Press
MSL
hPa
Rain since
9am
mm
Dir  Spd
km/h
Gust
km/h
Spd
kts
Gust
kts
28/11:30pm 3.2 0.2 2.0 92 0.5 N 7 9 4 5 1026.0 1026.2 0.0
28/11:00pm 3.1 0.6 1.8 91 0.5 N 4 6 2 3 1026.1 1026.3 0.0
28/10:30pm 3.3 0.4 1.7 89 0.6 NNE 6 6 3 3 1026.1 1026.3 0.0
28/10:00pm 4.8 2.2 3.1 89 0.7 NE 6 7 3 4 1026.2 1026.4 0.0
28/09:30pm 4.5 1.8 2.7 88 0.7 NE 6 7 3 4 1026.5 1026.7 0.0
28/09:00pm 4.6 1.7 2.5 86 0.9 ENE 7 9 4 5 1026.6 1026.8 0.0
28/08:30pm 5.2 2.3 2.7 84 1.0 ENE 7 9 4 5 1026.6 1026.8 0.0
28/08:00pm 6.3 3.6 3.5 82 1.2 E 7 11 4 6 1026.5 1026.7 0.0
28/07:30pm 6.8 3.7 3.8 81 1.3 ESE 9 13 5 7 1026.3 1026.5 0.0
28/07:00pm 7.4 4.5 4.4 81 1.3 ESE 9 15 5 8 1026.3 1026.5 0.0
28/06:30pm 8.1 4.7 4.1 76 1.8 ESE 11 15 6 8 1026.3 1026.5 0.0
28/06:00pm 9.4 6.1 4.4 71 2.2 ESE 11 17 6 9 1026.2 1026.4 0.0
28/05:30pm 10.5 6.5 5.1 69 2.5 ESE 15 20 8 11 1025.9 1026.1 0.0
28/05:00pm 11.4 7.5 5.3 66 2.8 SE 15 20 8 11 1025.7 1025.9 0.0
28/04:30pm 12.3 8.7 5.2 62 3.3 ESE 13 20 7 11 1025.7 1025.9 0.0
28/04:00pm 12.6 9.4 5.3 61 3.4 SE 11 17 6 9 1025.8 1026.0 0.0
28/03:30pm 12.5 9.3 5.0 60 3.5 SE 11 17 6 9 1026.0 1026.2 0.0
28/03:00pm 13.1 10.1 5.8 61 3.5 ESE 11 17 6 9 1026.2 1026.4 0.0
28/02:30pm 12.6 9.8 5.3 61 3.4 ESE 9 19 5 10 1026.5 1026.7 0.0
28/02:00pm 12.7 9.7 5.8 63 3.3 SE 11 19 6 10 1026.7 1026.9 0.0
28/01:30pm 12.8 9.8 5.9 63 3.3 SE 11 20 6 11 1027.0 1027.2 0.0
28/01:00pm 12.1 9.6 5.0 62 3.3 ESE 7 17 4 9 1027.3 1027.5 0.0
28/12:30pm 11.9 8.7 5.3 64 3.1 ESE 11 15 6 8 1027.7 1027.9 0.0
28/12:00pm 11.2 8.6 4.2 62 3.2 E 7 11 4 6 1028.2 1028.4 0.0
28/11:30am 10.7 8.1 4.2 64 2.9 E 7 13 4 7 1028.3 1028.5 0.0
28/11:00am 10.4 7.9 3.9 64 2.9 SSE 6 13 3 7 1028.6 1028.9 0.0
28/10:30am 9.5 6.8 3.7 67 2.6 SE 7 15 4 8 1029.1 1029.4 0.0
28/10:00am 9.3 6.8 4.5 72 2.1 ESE 7 15 4 8 1029.5 1029.7 0.0
28/09:30am 9.1 6.2 6.5 84 1.2 SE 11 17 6 9 1029.4 1029.6 0.0
28/09:00am 8.6 6.9 7.7 94 0.4 S 6 7 3 4 1029.4 1029.6 0.2
28/08:30am 7.2 6.5 6.8 97 0.2 CALM 0 0 0 0 1029.1 1029.4 0.2
28/08:00am 5.5 3.7 5.2 98 0.1 NNW 4 6 2 3 1028.9 1029.2 0.2
28/07:30am 2.4 -0.6 2.0 97 0.2 NNW 7 9 4 5 1028.6 1028.9 0.0
28/07:00am 0.5 -3.2 0.1 97 0.1 NNW 9 9 5 5 1028.3 1028.5 0.0
28/06:30am -0.4 -4.2 -1.0 96 0.2 NNW 9 9 5 5 1027.9 1028.1 0.0
28/06:00am -0.5 -4.3 -1.1 96 0.2 N 9 13 5 7 1027.4 1027.6 0.0
28/05:30am -0.3 -4.1 -0.9 96 0.2 NNW 9 11 5 6 1027.5 1027.7 0.0
28/05:00am -0.1 -3.9 -0.7 96 0.2 N 9 9 5 5 1027.3 1027.5 0.0
28/04:30am 0.3 -3.4 -0.3 96 0.2 N 9 11 5 6 1027.2 1027.4 0.0
28/04:00am 0.6 -3.1 0.0 96 0.2 N 9 11 5 6 1027.2 1027.4 0.0
28/03:30am 0.8 -3.2 0.2 96 0.2 N 11 13 6 7 1027.3 1027.5 0.0
28/03:00am 0.9 -2.7 0.3 96 0.2 N 9 11 5 6 1027.5 1027.7 0.0
28/02:30am 1.1 -2.5 0.4 95 0.3 N 9 11 5 6 1027.6 1027.8 0.0
28/02:00am 1.1 -2.5 0.4 95 0.3 N 9 11 5 6 1027.9 1028.1 0.0
28/01:30am 1.1 -2.5 0.4 95 0.3 N 9 9 5 5 1027.9 1028.1 0.0
28/01:00am 1.2 -2.4 0.5 95 0.3 NNW 9 9 5 5 1028.1 1028.3 0.0
28/12:30am 1.1 -2.6 0.2 94 0.3 N 9 9 5 5 1028.2 1028.4 0.0
28/12:00am 1.2 -2.4 0.3 94 0.3 N 9 9 5 5 1028.2 1028.4 0.0
 
Date/Time
EST
Temp
°C
App
Temp
°C
Dew
Point
°C
Rel
Hum
%
Delta-T
°C
Wind Press
QNH
hPa
Press
MSL
hPa
Rain since
9am
mm
Dir  Spd
km/h
Gust
km/h
Spd
kts
Gust
kts
27/11:30pm 1.3 -2.0 0.3 93 0.4 N 7 9 4 5 1028.1 1028.3 0.0
27/11:00pm 1.9 -1.3 0.9 93 0.4 NNW 7 9 4 5 1028.0 1028.2 0.0
27/10:30pm 2.2 -0.8 1.0 92 0.5 N 6 6 3 3 1028.0 1028.2 0.0
27/10:00pm 2.7 -0.4 1.4 91 0.5 N 7 9 4 5 1028.3 1028.5 0.0
27/09:30pm 3.3 0.5 1.8 90 0.6 NNW 6 6 3 3 1028.2 1028.4 0.0
27/09:00pm 4.1 1.7 2.1 87 0.8 N 4 6 2 3 1028.2 1028.4 0.0
27/08:30pm 5.1 3.1 2.3 82 1.1 NE 2 2 1 1 1028.1 1028.3 0.0
27/08:00pm 6.3 4.1 3.1 80 1.3 ESE 4 6 2 3 1027.9 1028.1 0.0
27/07:30pm 6.7 4.6 3.7 81 1.3 SE 4 6 2 3 1027.7 1027.9 0.0
27/07:00pm 7.1 4.4 3.5 78 1.5 SE 7 9 4 5 1027.5 1027.7 0.0
27/06:30pm 8.2 5.7 3.7 73 2.0 E 6 9 3 5 1027.2 1027.4 0.0
27/06:00pm 9.2 6.6 4.2 71 2.2 ESE 7 13 4 7 1027.0 1027.2 0.0
27/05:30pm 9.5 6.5 3.9 68 2.5 ESE 9 13 5 7 1026.6 1026.8 0.0
27/05:00pm 9.8 5.6 3.8 66 2.6 ESE 15 19 8 10 1026.3 1026.5 0.0
27/04:30pm 11.0 8.1 4.5 64 3.0 ESE 9 13 5 7 1025.9 1026.1 0.0
27/04:00pm 11.8 10.4 3.8 58 3.6 CALM 0 0 0 0 1025.7 1025.9 0.0
27/03:30pm 11.2 9.3 2.8 56 3.7 S 2 6 1 3 1025.7 1025.9 0.0
27/03:00pm 11.1 8.5 3.2 58 3.5 SSW 6 11 3 6 1025.7 1025.9 0.0
27/02:30pm 11.0 8.4 4.0 62 3.2 SSE 7 15 4 8 1025.7 1025.9 0.0
27/02:00pm 11.1 8.5 3.4 59 3.4 SSE 6 7 3 4 1025.7 1025.9 0.0
27/01:30pm 11.4 8.7 2.7 55 3.8 SSE 6 9 3 5 1025.8 1026.0 0.0
27/01:00pm 11.3 8.8 4.5 63 3.1 S 7 13 4 7 1026.2 1026.4 0.0
27/12:30pm 11.3 9.0 2.6 55 3.8 SE 4 15 2 8 1026.3 1026.5 0.0
27/12:00pm 10.4 7.7 2.5 58 3.4 SSE 6 13 3 7 1026.3 1026.5 0.0
27/11:30am 10.1 6.9 3.2 62 3.0 S 9 17 5 9 1026.3 1026.5 0.0
27/11:00am 9.9 6.7 3.0 62 3.0 S 9 13 5 7 1026.2 1026.4 0.0
27/10:30am 10.0 6.9 3.5 64 2.9 S 9 15 5 8 1026.2 1026.4 0.0
27/10:00am 8.8 5.6 2.8 66 2.6 SSE 9 17 5 9 1026.2 1026.4 0.0
27/09:30am 8.9 6.0 4.5 74 2.0 S 9 11 5 6 1026.1 1026.3 0.0
27/09:00am 8.8 6.3 6.6 86 1.0 S 9 13 5 7 1025.8 1026.0 4.0
27/08:30am 8.1 6.7 7.2 94 0.4 SSW 4 7 2 4 1025.4 1025.6 4.0
27/08:00am 6.7 5.5 6.3 97 0.2 SE 2 4 1 2 1025.0 1025.1 4.0
27/07:30am 6.4 4.2 6.0 97 0.2 S 7 13 4 7 1024.5 1024.7 4.0
27/07:00am 5.8 4.0 5.4 97 0.2 WSW 4 7 2 4 1023.8 1024.0 4.0
27/06:30am 5.4 3.5 5.0 97 0.2 WSW 4 7 2 4 1023.1 1023.3 4.0
27/06:00am 6.2 3.9 5.8 97 0.2 W 7 11 4 6 1022.6 1022.8 4.0
27/05:30am 6.7 4.5 6.3 97 0.2 WSW 7 13 4 7 1022.3 1022.5 4.0
27/05:00am 6.8 4.6 6.4 97 0.2 W 7 9 4 5 1021.7 1021.9 4.0
27/04:30am 7.0 4.9 6.6 97 0.2 WSW 7 13 4 7 1021.3 1021.4 4.0
27/04:00am 7.2 5.3 6.8 97 0.2 WSW 6 13 3 7 1021.0 1021.1 4.0
27/03:30am 7.2 5.1 6.8 97 0.2 WSW 7 15 4 8 1020.6 1020.7 3.8
27/03:00am 7.3 4.8 6.7 96 0.3 WSW 9 15 5 8 1020.1 1020.3 3.6
27/02:30am 7.1 4.6 6.5 96 0.3 WSW 9 19 5 10 1020.0 1020.2 3.6
27/02:00am 6.8 4.6 6.1 95 0.3 WSW 7 15 4 8 1019.7 1019.9 3.6
27/01:30am 7.0 3.7 6.3 95 0.3 WSW 13 24 7 13 1019.6 1019.8 3.6
27/01:00am 7.3 3.3 6.7 96 0.3 WSW 17 28 9 15 1019.7 1019.9 3.0
27/12:30am 7.4 3.0 6.7 95 0.3 W 19 28 10 15 1019.5 1019.7 2.2
27/12:00am 7.4 3.4 6.7 95 0.3 W 17 26 9 14 1019.2 1019.4 2.0
 
Date/Time
EST
Temp
°C
App
Temp
°C
Dew
Point
°C
Rel
Hum
%
Delta-T
°C
Wind Press
QNH
hPa
Press
MSL
hPa
Rain since
9am
mm
Dir  Spd
km/h
Gust
km/h
Spd
kts
Gust
kts
26/11:30pm 7.5 2.9 6.6 94 0.4 W 20 32 11 17 1019.1 1019.3 1.8
26/11:00pm 7.6 2.7 6.7 94 0.4 W 22 35 12 19 1019.0 1019.2 1.8
26/10:30pm 7.5 2.9 6.6 94 0.4 W 20 30 11 16 1019.0 1019.2 1.8
26/10:00pm 7.4 2.4 6.5 94 0.4 W 22 35 12 19 1018.9 1019.1 1.8
26/09:30pm 7.5 2.5 6.4 93 0.5 W 22 33 12 18 1018.7 1018.9 1.8
26/09:00pm 7.6 3.5 6.4 92 0.6 W 17 30 9 16 1018.8 1019.0 1.8
26/08:30pm 7.8 3.3 6.3 90 0.7 W 19 24 10 13 1018.6 1018.8 1.4
26/08:00pm 7.8 3.1 5.9 88 0.9 W 20 33 11 18 1018.2 1018.4 1.4
26/07:30pm 7.8 3.3 6.1 89 0.8 W 19 30 10 16 1017.7 1017.8 1.4
26/07:00pm 7.8 3.7 6.3 90 0.7 W 17 32 9 17 1017.4 1017.5 1.4
26/06:30pm 7.5 2.9 5.6 88 0.9 W 19 28 10 15 1016.9 1017.0 1.4
26/06:00pm 8.0 3.5 6.0 87 0.9 W 19 28 10 15 1016.7 1016.8 1.4
26/05:30pm 8.2 3.6 5.5 83 1.2 W 19 30 10 16 1016.2 1016.3 1.2
26/05:00pm 9.2 3.9 5.2 76 1.8 W 22 39 12 21 1015.6 1015.8 1.2
26/04:30pm 9.3 2.8 4.7 73 2.1 W 28 41 15 22 1015.3 1015.5 1.2
26/04:00pm 9.9 5.5 6.4 79 1.6 WSW 19 30 10 16 1015.1 1015.3 1.2
26/03:30pm 9.7 4.9 4.9 72 2.2 WSW 19 37 10 20 1014.9 1015.1 1.2
26/03:00pm 10.5 4.5 5.1 69 2.5 W 26 39 14 21 1014.7 1014.9 1.2
26/02:30pm 10.1 5.5 6.4 78 1.7 W 20 35 11 19 1014.9 1015.1 1.2
26/02:00pm 9.3 5.2 6.2 81 1.4 WSW 17 30 9 16 1014.8 1015.0 1.2
26/01:30pm 10.6 6.0 5.4 70 2.4 WSW 19 28 10 15 1014.8 1015.0 1.2

Latest Capital City Observations: Canberra | Sydney | Melbourne | Brisbane | Adelaide | Perth | Hobart | Darwin

Other formats

Comma delimited format used in spreadsheet applications
http://www.bom.gov.au/fwo/IDV60901/IDV60901.94863.axf

JavaScript Object Notation format (JSON) in row-major order
http://www.bom.gov.au/fwo/IDV60901/IDV60901.94863.json

Data quality

Most of these data are generated automatically and are frequently updated. Quality checks on data are not normally performed. It is possible for incorrect values to appear. Refer to information at About Latest Weather Observations and please check the disclaimer before using these data.